sensor_id;sensor_type;location;lat;lon;timestamp;P1;durP1;ratioP1;P2;durP2;ratioP2
12603;SDS011;6367;52.508;13.284;2023-04-24T00:01:47;5.37;;;4.90;;
12603;SDS011;6367;52.508;13.284;2023-04-24T00:04:13;5.60;;;5.03;;
12603;SDS011;6367;52.508;13.284;2023-04-24T00:06:41;6.90;;;5.37;;
12603;SDS011;6367;52.508;13.284;2023-04-24T00:09:07;6.20;;;5.70;;
12603;SDS011;6367;52.508;13.284;2023-04-24T00:11:35;6.60;;;6.00;;
12603;SDS011;6367;52.508;13.284;2023-04-24T00:14:01;6.30;;;5.70;;
12603;SDS011;6367;52.508;13.284;2023-04-24T00:16:27;5.50;;;5.03;;
12603;SDS011;6367;52.508;13.284;2023-04-24T00:18:53;6.50;;;5.90;;
12603;SDS011;6367;52.508;13.284;2023-04-24T00:21:19;5.87;;;4.77;;
12603;SDS011;6367;52.508;13.284;2023-04-24T00:23:45;5.30;;;4.90;;
12603;SDS011;6367;52.508;13.284;2023-04-24T00:26:11;6.17;;;5.57;;
12603;SDS011;6367;52.508;13.284;2023-04-24T00:28:36;5.27;;;4.87;;
12603;SDS011;6367;52.508;13.284;2023-04-24T00:31:02;5.57;;;5.10;;
12603;SDS011;6367;52.508;13.284;2023-04-24T00:33:28;5.73;;;5.23;;
12603;SDS011;6367;52.508;13.284;2023-04-24T00:35:53;5.97;;;5.47;;
12603;SDS011;6367;52.508;13.284;2023-04-24T00:38:19;5.50;;;5.00;;
12603;SDS011;6367;52.508;13.284;2023-04-24T00:40:45;5.50;;;5.00;;
12603;SDS011;6367;52.508;13.284;2023-04-24T00:43:11;6.40;;;5.20;;
12603;SDS011;6367;52.508;13.284;2023-04-24T00:45:37;5.77;;;5.37;;
12603;SDS011;6367;52.508;13.284;2023-04-24T00:48:02;7.30;;;5.60;;
12603;SDS011;6367;52.508;13.284;2023-04-24T00:50:29;5.30;;;4.80;;
12603;SDS011;6367;52.508;13.284;2023-04-24T00:52:55;5.00;;;4.60;;
12603;SDS011;6367;52.508;13.284;2023-04-24T00:55:24;5.43;;;4.93;;
12603;SDS011;6367;52.508;13.284;2023-04-24T00:57:51;6.23;;;5.73;;
12603;SDS011;6367;52.508;13.284;2023-04-24T01:00:17;6.23;;;5.63;;
12603;SDS011;6367;52.508;13.284;2023-04-24T01:02:43;6.03;;;5.53;;
12603;SDS011;6367;52.508;13.284;2023-04-24T01:05:10;5.63;;;5.07;;
12603;SDS011;6367;52.508;13.284;2023-04-24T01:07:38;5.40;;;5.00;;
12603;SDS011;6367;52.508;13.284;2023-04-24T01:10:04;5.20;;;4.80;;
12603;SDS011;6367;52.508;13.284;2023-04-24T01:12:31;5.40;;;5.00;;
12603;SDS011;6367;52.508;13.284;2023-04-24T01:14:57;6.07;;;5.60;;
12603;SDS011;6367;52.508;13.284;2023-04-24T01:17:23;5.80;;;5.30;;
12603;SDS011;6367;52.508;13.284;2023-04-24T01:19:48;6.30;;;5.70;;
12603;SDS011;6367;52.508;13.284;2023-04-24T01:22:14;5.50;;;5.10;;
12603;SDS011;6367;52.508;13.284;2023-04-24T01:24:41;5.67;;;5.17;;
12603;SDS011;6367;52.508;13.284;2023-04-24T01:27:08;5.60;;;5.10;;
12603;SDS011;6367;52.508;13.284;2023-04-24T01:29:35;5.90;;;5.40;;
12603;SDS011;6367;52.508;13.284;2023-04-24T01:32:01;5.40;;;5.00;;
12603;SDS011;6367;52.508;13.284;2023-04-24T01:34:28;5.77;;;5.27;;
12603;SDS011;6367;52.508;13.284;2023-04-24T01:36:54;5.90;;;5.40;;
12603;SDS011;6367;52.508;13.284;2023-04-24T01:39:21;5.60;;;5.20;;
12603;SDS011;6367;52.508;13.284;2023-04-24T01:41:48;5.60;;;5.10;;
12603;SDS011;6367;52.508;13.284;2023-04-24T01:44:15;5.83;;;5.33;;
12603;SDS011;6367;52.508;13.284;2023-04-24T01:46:41;5.90;;;5.40;;
12603;SDS011;6367;52.508;13.284;2023-04-24T01:49:07;6.73;;;6.00;;
12603;SDS011;6367;52.508;13.284;2023-04-24T01:51:32;6.70;;;6.10;;
12603;SDS011;6367;52.508;13.284;2023-04-24T01:53:58;5.77;;;5.30;;
12603;SDS011;6367;52.508;13.284;2023-04-24T01:56:24;6.30;;;5.80;;
12603;SDS011;6367;52.508;13.284;2023-04-24T01:58:50;6.37;;;5.87;;
12603;SDS011;6367;52.508;13.284;2023-04-24T02:01:19;6.43;;;5.83;;
12603;SDS011;6367;52.508;13.284;2023-04-24T02:03:45;6.77;;;6.17;;
12603;SDS011;6367;52.508;13.284;2023-04-24T02:06:11;6.90;;;6.30;;
12603;SDS011;6367;52.508;13.284;2023-04-24T02:08:36;6.97;;;6.43;;
12603;SDS011;6367;52.508;13.284;2023-04-24T02:11:02;7.30;;;6.60;;
12603;SDS011;6367;52.508;13.284;2023-04-24T02:13:28;6.67;;;6.03;;
12603;SDS011;6367;52.508;13.284;2023-04-24T02:15:54;6.03;;;5.53;;
12603;SDS011;6367;52.508;13.284;2023-04-24T02:18:19;6.53;;;6.00;;
12603;SDS011;6367;52.508;13.284;2023-04-24T02:20:45;5.97;;;5.57;;
12603;SDS011;6367;52.508;13.284;2023-04-24T02:23:11;5.93;;;5.43;;
12603;SDS011;6367;52.508;13.284;2023-04-24T02:25:38;6.20;;;5.70;;
12603;SDS011;6367;52.508;13.284;2023-04-24T02:28:04;7.70;;;6.37;;
12603;SDS011;6367;52.508;13.284;2023-04-24T02:30:29;6.57;;;6.07;;
12603;SDS011;6367;52.508;13.284;2023-04-24T02:32:55;6.67;;;6.07;;
12603;SDS011;6367;52.508;13.284;2023-04-24T02:35:21;6.63;;;6.13;;
12603;SDS011;6367;52.508;13.284;2023-04-24T02:37:46;7.77;;;5.43;;
12603;SDS011;6367;52.508;13.284;2023-04-24T02:40:12;6.93;;;6.40;;
12603;SDS011;6367;52.508;13.284;2023-04-24T02:42:38;6.80;;;6.20;;
12603;SDS011;6367;52.508;13.284;2023-04-24T02:45:04;9.53;;;5.90;;
12603;SDS011;6367;52.508;13.284;2023-04-24T02:47:30;6.77;;;6.20;;
12603;SDS011;6367;52.508;13.284;2023-04-24T02:49:55;6.17;;;5.67;;
12603;SDS011;6367;52.508;13.284;2023-04-24T02:52:21;6.63;;;6.13;;
12603;SDS011;6367;52.508;13.284;2023-04-24T02:54:47;6.83;;;6.30;;
12603;SDS011;6367;52.508;13.284;2023-04-24T02:57:12;6.93;;;6.33;;
12603;SDS011;6367;52.508;13.284;2023-04-24T02:59:38;6.60;;;6.10;;
12603;SDS011;6367;52.508;13.284;2023-04-24T03:02:04;6.17;;;5.67;;
12603;SDS011;6367;52.508;13.284;2023-04-24T03:04:32;6.70;;;6.10;;
12603;SDS011;6367;52.508;13.284;2023-04-24T03:06:57;6.87;;;6.27;;
12603;SDS011;6367;52.508;13.284;2023-04-24T03:09:23;6.60;;;6.10;;
12603;SDS011;6367;52.508;13.284;2023-04-24T03:11:49;6.87;;;6.13;;
12603;SDS011;6367;52.508;13.284;2023-04-24T03:14:15;7.23;;;6.53;;
12603;SDS011;6367;52.508;13.284;2023-04-24T03:16:41;8.10;;;6.43;;
12603;SDS011;6367;52.508;13.284;2023-04-24T03:19:07;6.47;;;5.77;;
12603;SDS011;6367;52.508;13.284;2023-04-24T03:21:33;6.00;;;5.50;;
12603;SDS011;6367;52.508;13.284;2023-04-24T03:24:00;5.73;;;5.33;;
12603;SDS011;6367;52.508;13.284;2023-04-24T03:26:27;7.03;;;6.43;;
12603;SDS011;6367;52.508;13.284;2023-04-24T03:28:52;5.90;;;5.40;;
12603;SDS011;6367;52.508;13.284;2023-04-24T03:31:18;6.73;;;6.13;;
12603;SDS011;6367;52.508;13.284;2023-04-24T03:33:46;7.00;;;6.40;;
12603;SDS011;6367;52.508;13.284;2023-04-24T03:36:11;7.00;;;6.40;;
12603;SDS011;6367;52.508;13.284;2023-04-24T03:38:37;6.33;;;5.80;;
12603;SDS011;6367;52.508;13.284;2023-04-24T03:41:03;6.80;;;6.20;;
12603;SDS011;6367;52.508;13.284;2023-04-24T03:43:28;6.57;;;6.17;;
12603;SDS011;6367;52.508;13.284;2023-04-24T03:45:54;7.47;;;6.87;;
12603;SDS011;6367;52.508;13.284;2023-04-24T03:48:20;7.00;;;6.23;;
12603;SDS011;6367;52.508;13.284;2023-04-24T03:50:45;7.70;;;7.00;;
12603;SDS011;6367;52.508;13.284;2023-04-24T03:53:11;6.47;;;5.97;;
12603;SDS011;6367;52.508;13.284;2023-04-24T03:55:37;7.30;;;6.60;;
12603;SDS011;6367;52.508;13.284;2023-04-24T03:58:02;6.90;;;6.20;;
12603;SDS011;6367;52.508;13.284;2023-04-24T04:00:28;7.10;;;6.60;;
12603;SDS011;6367;52.508;13.284;2023-04-24T04:02:58;6.43;;;5.93;;
12603;SDS011;6367;52.508;13.284;2023-04-24T04:05:23;7.90;;;7.17;;
12603;SDS011;6367;52.508;13.284;2023-04-24T04:07:49;6.17;;;5.67;;
12603;SDS011;6367;52.508;13.284;2023-04-24T04:10:15;6.93;;;6.43;;
12603;SDS011;6367;52.508;13.284;2023-04-24T04:12:42;8.00;;;7.20;;
12603;SDS011;6367;52.508;13.284;2023-04-24T04:15:07;7.40;;;6.80;;
12603;SDS011;6367;52.508;13.284;2023-04-24T04:17:33;6.27;;;5.77;;
12603;SDS011;6367;52.508;13.284;2023-04-24T04:19:59;7.00;;;6.50;;
12603;SDS011;6367;52.508;13.284;2023-04-24T04:22:25;6.77;;;6.27;;
12603;SDS011;6367;52.508;13.284;2023-04-24T04:24:50;6.40;;;5.90;;
12603;SDS011;6367;52.508;13.284;2023-04-24T04:27:16;6.50;;;6.00;;
12603;SDS011;6367;52.508;13.284;2023-04-24T04:29:43;7.37;;;6.77;;
12603;SDS011;6367;52.508;13.284;2023-04-24T04:32:09;6.80;;;6.20;;
12603;SDS011;6367;52.508;13.284;2023-04-24T04:34:35;7.30;;;6.67;;
12603;SDS011;6367;52.508;13.284;2023-04-24T04:37:02;6.43;;;5.93;;
12603;SDS011;6367;52.508;13.284;2023-04-24T04:39:28;6.53;;;5.80;;
12603;SDS011;6367;52.508;13.284;2023-04-24T04:41:55;6.90;;;6.37;;
12603;SDS011;6367;52.508;13.284;2023-04-24T04:44:21;8.20;;;6.67;;
12603;SDS011;6367;52.508;13.284;2023-04-24T04:46:47;6.20;;;5.70;;
12603;SDS011;6367;52.508;13.284;2023-04-24T04:49:12;6.07;;;5.57;;
12603;SDS011;6367;52.508;13.284;2023-04-24T04:51:41;6.20;;;5.70;;
12603;SDS011;6367;52.508;13.284;2023-04-24T04:54:07;6.77;;;6.20;;
12603;SDS011;6367;52.508;13.284;2023-04-24T04:56:33;6.27;;;5.77;;
12603;SDS011;6367;52.508;13.284;2023-04-24T04:58:58;6.20;;;5.70;;
12603;SDS011;6367;52.508;13.284;2023-04-24T05:01:24;5.80;;;5.30;;
12603;SDS011;6367;52.508;13.284;2023-04-24T05:03:52;6.43;;;5.93;;
12603;SDS011;6367;52.508;13.284;2023-04-24T05:06:18;6.17;;;5.67;;
12603;SDS011;6367;52.508;13.284;2023-04-24T05:08:43;5.90;;;5.30;;
12603;SDS011;6367;52.508;13.284;2023-04-24T05:11:09;6.00;;;5.40;;
12603;SDS011;6367;52.508;13.284;2023-04-24T05:13:35;6.07;;;5.57;;
12603;SDS011;6367;52.508;13.284;2023-04-24T05:16:00;6.10;;;5.50;;
12603;SDS011;6367;52.508;13.284;2023-04-24T05:18:26;6.77;;;5.93;;
12603;SDS011;6367;52.508;13.284;2023-04-24T05:20:52;5.50;;;5.10;;
12603;SDS011;6367;52.508;13.284;2023-04-24T05:23:17;6.20;;;5.70;;
12603;SDS011;6367;52.508;13.284;2023-04-24T05:25:43;6.67;;;6.10;;
12603;SDS011;6367;52.508;13.284;2023-04-24T05:28:08;6.10;;;5.50;;
12603;SDS011;6367;52.508;13.284;2023-04-24T05:30:34;5.83;;;5.33;;
12603;SDS011;6367;52.508;13.284;2023-04-24T05:33:01;5.50;;;5.10;;
12603;SDS011;6367;52.508;13.284;2023-04-24T05:35:27;7.43;;;5.40;;
12603;SDS011;6367;52.508;13.284;2023-04-24T05:37:53;5.30;;;4.87;;
12603;SDS011;6367;52.508;13.284;2023-04-24T05:40:19;5.13;;;4.73;;
12603;SDS011;6367;52.508;13.284;2023-04-24T05:42:45;5.10;;;4.60;;
12603;SDS011;6367;52.508;13.284;2023-04-24T05:45:11;4.30;;;4.00;;
12603;SDS011;6367;52.508;13.284;2023-04-24T05:47:41;4.30;;;4.00;;
12603;SDS011;6367;52.508;13.284;2023-04-24T05:50:08;4.53;;;4.13;;
12603;SDS011;6367;52.508;13.284;2023-04-24T05:52:34;5.37;;;4.00;;
12603;SDS011;6367;52.508;13.284;2023-04-24T05:55:00;4.43;;;4.03;;
12603;SDS011;6367;52.508;13.284;2023-04-24T05:57:26;3.63;;;3.33;;
12603;SDS011;6367;52.508;13.284;2023-04-24T05:59:51;3.67;;;3.40;;
12603;SDS011;6367;52.508;13.284;2023-04-24T06:02:17;5.17;;;3.03;;
12603;SDS011;6367;52.508;13.284;2023-04-24T06:04:43;2.93;;;2.70;;
12603;SDS011;6367;52.508;13.284;2023-04-24T06:07:10;3.40;;;3.10;;
12603;SDS011;6367;52.508;13.284;2023-04-24T06:09:36;2.80;;;2.60;;
12603;SDS011;6367;52.508;13.284;2023-04-24T06:12:02;3.80;;;2.97;;
12603;SDS011;6367;52.508;13.284;2023-04-24T06:14:27;3.13;;;2.67;;
12603;SDS011;6367;52.508;13.284;2023-04-24T06:16:53;2.43;;;2.23;;
12603;SDS011;6367;52.508;13.284;2023-04-24T06:19:19;2.70;;;2.50;;
12603;SDS011;6367;52.508;13.284;2023-04-24T06:21:45;2.83;;;2.40;;
12603;SDS011;6367;52.508;13.284;2023-04-24T06:24:13;3.80;;;2.87;;
12603;SDS011;6367;52.508;13.284;2023-04-24T06:26:39;2.40;;;2.00;;
12603;SDS011;6367;52.508;13.284;2023-04-24T06:29:05;3.40;;;2.10;;
12603;SDS011;6367;52.508;13.284;2023-04-24T06:31:32;1.70;;;1.60;;
12603;SDS011;6367;52.508;13.284;2023-04-24T06:34:01;2.70;;;1.93;;
12603;SDS011;6367;52.508;13.284;2023-04-24T06:36:27;2.33;;;2.10;;
12603;SDS011;6367;52.508;13.284;2023-04-24T06:38:53;2.50;;;1.90;;
12603;SDS011;6367;52.508;13.284;2023-04-24T06:41:19;2.23;;;1.70;;
12603;SDS011;6367;52.508;13.284;2023-04-24T06:43:45;2.77;;;1.80;;
12603;SDS011;6367;52.508;13.284;2023-04-24T06:46:10;1.57;;;1.33;;
12603;SDS011;6367;52.508;13.284;2023-04-24T06:48:37;1.60;;;1.50;;
12603;SDS011;6367;52.508;13.284;2023-04-24T06:51:02;1.50;;;1.40;;
12603;SDS011;6367;52.508;13.284;2023-04-24T06:53:28;4.00;;;1.63;;
12603;SDS011;6367;52.508;13.284;2023-04-24T06:55:54;2.50;;;1.60;;
12603;SDS011;6367;52.508;13.284;2023-04-24T06:58:19;1.53;;;1.43;;
12603;SDS011;6367;52.508;13.284;2023-04-24T07:00:45;1.40;;;1.30;;
12603;SDS011;6367;52.508;13.284;2023-04-24T07:03:11;1.20;;;1.10;;
12603;SDS011;6367;52.508;13.284;2023-04-24T07:05:36;1.40;;;1.30;;
12603;SDS011;6367;52.508;13.284;2023-04-24T07:08:03;2.97;;;1.30;;
12603;SDS011;6367;52.508;13.284;2023-04-24T07:10:29;1.20;;;1.10;;
12603;SDS011;6367;52.508;13.284;2023-04-24T07:12:55;1.13;;;1.03;;
12603;SDS011;6367;52.508;13.284;2023-04-24T07:15:22;3.60;;;1.37;;
12603;SDS011;6367;52.508;13.284;2023-04-24T07:17:48;1.47;;;1.13;;
12603;SDS011;6367;52.508;13.284;2023-04-24T07:20:14;0.93;;;0.93;;
12603;SDS011;6367;52.508;13.284;2023-04-24T07:22:40;1.03;;;0.97;;
12603;SDS011;6367;52.508;13.284;2023-04-24T07:25:06;1.40;;;1.20;;
12603;SDS011;6367;52.508;13.284;2023-04-24T07:27:33;1.73;;;1.37;;
12603;SDS011;6367;52.508;13.284;2023-04-24T07:29:59;1.47;;;1.37;;
12603;SDS011;6367;52.508;13.284;2023-04-24T07:32:25;1.37;;;1.00;;
12603;SDS011;6367;52.508;13.284;2023-04-24T07:34:51;2.13;;;1.30;;
12603;SDS011;6367;52.508;13.284;2023-04-24T07:37:16;1.10;;;1.00;;
12603;SDS011;6367;52.508;13.284;2023-04-24T07:39:42;0.80;;;0.80;;
12603;SDS011;6367;52.508;13.284;2023-04-24T07:42:08;1.43;;;1.00;;
12603;SDS011;6367;52.508;13.284;2023-04-24T07:44:34;1.20;;;1.10;;
12603;SDS011;6367;52.508;13.284;2023-04-24T07:47:00;1.17;;;0.90;;
12603;SDS011;6367;52.508;13.284;2023-04-24T07:49:26;1.10;;;0.97;;
12603;SDS011;6367;52.508;13.284;2023-04-24T07:51:52;2.00;;;0.90;;
12603;SDS011;6367;52.508;13.284;2023-04-24T07:54:18;1.37;;;1.00;;
12603;SDS011;6367;52.508;13.284;2023-04-24T07:56:44;1.20;;;1.03;;
12603;SDS011;6367;52.508;13.284;2023-04-24T07:59:10;0.80;;;0.80;;
12603;SDS011;6367;52.508;13.284;2023-04-24T08:01:36;0.90;;;0.90;;
12603;SDS011;6367;52.508;13.284;2023-04-24T08:04:02;1.77;;;1.00;;
12603;SDS011;6367;52.508;13.284;2023-04-24T08:06:28;1.20;;;1.00;;
12603;SDS011;6367;52.508;13.284;2023-04-24T08:08:58;1.40;;;0.90;;
12603;SDS011;6367;52.508;13.284;2023-04-24T08:11:24;1.13;;;1.00;;
12603;SDS011;6367;52.508;13.284;2023-04-24T08:13:50;1.10;;;1.00;;
12603;SDS011;6367;52.508;13.284;2023-04-24T08:16:16;1.60;;;1.10;;
12603;SDS011;6367;52.508;13.284;2023-04-24T08:18:41;1.27;;;1.10;;
12603;SDS011;6367;52.508;13.284;2023-04-24T08:21:07;2.10;;;1.00;;
12603;SDS011;6367;52.508;13.284;2023-04-24T08:23:33;1.20;;;1.10;;
12603;SDS011;6367;52.508;13.284;2023-04-24T08:25:58;1.33;;;1.10;;
12603;SDS011;6367;52.508;13.284;2023-04-24T08:28:24;0.90;;;0.80;;
12603;SDS011;6367;52.508;13.284;2023-04-24T08:30:50;0.80;;;0.80;;
12603;SDS011;6367;52.508;13.284;2023-04-24T08:33:19;0.90;;;0.87;;
12603;SDS011;6367;52.508;13.284;2023-04-24T08:35:46;1.10;;;1.00;;
12603;SDS011;6367;52.508;13.284;2023-04-24T08:38:12;0.70;;;0.70;;
12603;SDS011;6367;52.508;13.284;2023-04-24T08:40:37;1.00;;;1.00;;
12603;SDS011;6367;52.508;13.284;2023-04-24T08:43:04;1.23;;;1.00;;
12603;SDS011;6367;52.508;13.284;2023-04-24T08:45:30;1.27;;;1.00;;
12603;SDS011;6367;52.508;13.284;2023-04-24T08:47:57;0.80;;;0.80;;
12603;SDS011;6367;52.508;13.284;2023-04-24T08:50:24;0.80;;;0.80;;
12603;SDS011;6367;52.508;13.284;2023-04-24T08:52:50;1.40;;;0.93;;
12603;SDS011;6367;52.508;13.284;2023-04-24T08:55:18;2.17;;;1.10;;
12603;SDS011;6367;52.508;13.284;2023-04-24T08:57:46;0.90;;;0.80;;
12603;SDS011;6367;52.508;13.284;2023-04-24T09:00:16;0.97;;;0.97;;
12603;SDS011;6367;52.508;13.284;2023-04-24T09:02:43;1.00;;;0.90;;
12603;SDS011;6367;52.508;13.284;2023-04-24T09:05:10;1.53;;;0.80;;
12603;SDS011;6367;52.508;13.284;2023-04-24T09:07:37;1.83;;;0.80;;
12603;SDS011;6367;52.508;13.284;2023-04-24T09:10:06;0.77;;;0.70;;
12603;SDS011;6367;52.508;13.284;2023-04-24T09:12:34;1.40;;;0.90;;
12603;SDS011;6367;52.508;13.284;2023-04-24T09:15:00;1.57;;;0.90;;
12603;SDS011;6367;52.508;13.284;2023-04-24T09:17:28;1.30;;;0.90;;
12603;SDS011;6367;52.508;13.284;2023-04-24T09:19:55;1.60;;;0.90;;
12603;SDS011;6367;52.508;13.284;2023-04-24T09:22:20;1.00;;;0.90;;
12603;SDS011;6367;52.508;13.284;2023-04-24T09:24:46;2.10;;;1.07;;
12603;SDS011;6367;52.508;13.284;2023-04-24T09:27:13;0.80;;;0.80;;
12603;SDS011;6367;52.508;13.284;2023-04-24T09:29:47;1.10;;;0.90;;
12603;SDS011;6367;52.508;13.284;2023-04-24T09:32:20;1.37;;;1.00;;
12603;SDS011;6367;52.508;13.284;2023-04-24T09:34:47;1.43;;;1.20;;
12603;SDS011;6367;52.508;13.284;2023-04-24T09:37:29;1.37;;;1.10;;
12603;SDS011;6367;52.508;13.284;2023-04-24T09:40:11;0.90;;;0.90;;
12603;SDS011;6367;52.508;13.284;2023-04-24T09:42:37;1.43;;;1.33;;
12603;SDS011;6367;52.508;13.284;2023-04-24T09:45:04;1.47;;;0.90;;
12603;SDS011;6367;52.508;13.284;2023-04-24T09:47:36;1.67;;;1.20;;
12603;SDS011;6367;52.508;13.284;2023-04-24T09:50:11;1.83;;;1.07;;
12603;SDS011;6367;52.508;13.284;2023-04-24T09:52:44;1.20;;;1.10;;
12603;SDS011;6367;52.508;13.284;2023-04-24T09:55:13;1.40;;;1.30;;
12603;SDS011;6367;52.508;13.284;2023-04-24T09:57:50;2.57;;;1.30;;
12603;SDS011;6367;52.508;13.284;2023-04-24T10:00:25;2.17;;;1.50;;
12603;SDS011;6367;52.508;13.284;2023-04-24T10:02:59;1.00;;;0.90;;
12603;SDS011;6367;52.508;13.284;2023-04-24T10:05:29;1.93;;;1.03;;
12603;SDS011;6367;52.508;13.284;2023-04-24T10:08:02;1.83;;;0.93;;
12603;SDS011;6367;52.508;13.284;2023-04-24T10:10:30;1.07;;;1.00;;
12603;SDS011;6367;52.508;13.284;2023-04-24T10:12:57;1.20;;;1.00;;
12603;SDS011;6367;52.508;13.284;2023-04-24T10:15:22;1.60;;;1.10;;
12603;SDS011;6367;52.508;13.284;2023-04-24T10:17:50;1.30;;;1.03;;
12603;SDS011;6367;52.508;13.284;2023-04-24T10:20:20;3.00;;;1.27;;
12603;SDS011;6367;52.508;13.284;2023-04-24T10:22:53;1.60;;;0.90;;
12603;SDS011;6367;52.508;13.284;2023-04-24T10:25:19;1.40;;;1.00;;
12603;SDS011;6367;52.508;13.284;2023-04-24T10:27:46;1.33;;;1.00;;
12603;SDS011;6367;52.508;13.284;2023-04-24T10:30:13;1.60;;;1.00;;
12603;SDS011;6367;52.508;13.284;2023-04-24T10:32:39;1.80;;;1.10;;
12603;SDS011;6367;52.508;13.284;2023-04-24T10:35:09;1.93;;;1.40;;
12603;SDS011;6367;52.508;13.284;2023-04-24T10:37:37;1.30;;;1.00;;
12603;SDS011;6367;52.508;13.284;2023-04-24T10:40:05;0.80;;;0.80;;
12603;SDS011;6367;52.508;13.284;2023-04-24T10:42:33;2.80;;;1.10;;
12603;SDS011;6367;52.508;13.284;2023-04-24T10:44:59;1.00;;;1.00;;
12603;SDS011;6367;52.508;13.284;2023-04-24T10:47:29;1.37;;;1.07;;
12603;SDS011;6367;52.508;13.284;2023-04-24T10:50:07;1.87;;;1.07;;
12603;SDS011;6367;52.508;13.284;2023-04-24T10:52:47;1.60;;;1.23;;
12603;SDS011;6367;52.508;13.284;2023-04-24T10:55:15;1.20;;;1.00;;
12603;SDS011;6367;52.508;13.284;2023-04-24T11:00:27;1.17;;;0.80;;
12603;SDS011;6367;52.508;13.284;2023-04-24T11:02:53;0.90;;;0.90;;
12603;SDS011;6367;52.508;13.284;2023-04-24T11:05:20;1.53;;;0.80;;
12603;SDS011;6367;52.508;13.284;2023-04-24T11:10:41;1.17;;;0.90;;
12603;SDS011;6367;52.508;13.284;2023-04-24T11:13:09;8.47;;;2.50;;
12603;SDS011;6367;52.508;13.284;2023-04-24T11:15:35;6.53;;;2.37;;
12603;SDS011;6367;52.508;13.284;2023-04-24T11:18:01;10.63;;;1.63;;
12603;SDS011;6367;52.508;13.284;2023-04-24T11:20:27;3.53;;;1.60;;
12603;SDS011;6367;52.508;13.284;2023-04-24T11:22:53;2.87;;;1.03;;
12603;SDS011;6367;52.508;13.284;2023-04-24T11:25:22;2.27;;;1.10;;
12603;SDS011;6367;52.508;13.284;2023-04-24T11:27:48;1.10;;;1.00;;
12603;SDS011;6367;52.508;13.284;2023-04-24T11:30:18;1.37;;;0.90;;
12603;SDS011;6367;52.508;13.284;2023-04-24T11:32:47;1.73;;;1.30;;
12603;SDS011;6367;52.508;13.284;2023-04-24T11:37:47;1.27;;;1.00;;
12603;SDS011;6367;52.508;13.284;2023-04-24T11:40:14;4.20;;;1.53;;
12603;SDS011;6367;52.508;13.284;2023-04-24T11:42:41;1.53;;;1.20;;
12603;SDS011;6367;52.508;13.284;2023-04-24T11:45:12;1.90;;;1.27;;
12603;SDS011;6367;52.508;13.284;2023-04-24T11:47:39;1.27;;;1.03;;
12603;SDS011;6367;52.508;13.284;2023-04-24T11:50:06;2.37;;;1.47;;
12603;SDS011;6367;52.508;13.284;2023-04-24T11:52:37;2.23;;;1.40;;
12603;SDS011;6367;52.508;13.284;2023-04-24T11:55:06;3.30;;;1.60;;
12603;SDS011;6367;52.508;13.284;2023-04-24T11:57:48;3.13;;;1.30;;
12603;SDS011;6367;52.508;13.284;2023-04-24T12:00:15;2.20;;;1.50;;
12603;SDS011;6367;52.508;13.284;2023-04-24T12:02:43;1.30;;;1.20;;
12603;SDS011;6367;52.508;13.284;2023-04-24T12:05:18;1.80;;;1.10;;
12603;SDS011;6367;52.508;13.284;2023-04-24T12:07:52;1.20;;;1.07;;
12603;SDS011;6367;52.508;13.284;2023-04-24T12:10:20;1.23;;;1.13;;
12603;SDS011;6367;52.508;13.284;2023-04-24T12:12:47;2.40;;;1.07;;
12603;SDS011;6367;52.508;13.284;2023-04-24T12:15:15;1.10;;;1.10;;
12603;SDS011;6367;52.508;13.284;2023-04-24T12:17:41;1.60;;;1.00;;
12603;SDS011;6367;52.508;13.284;2023-04-24T12:20:08;1.20;;;1.10;;
12603;SDS011;6367;52.508;13.284;2023-04-24T12:22:44;1.63;;;1.20;;
12603;SDS011;6367;52.508;13.284;2023-04-24T12:25:17;0.90;;;0.90;;
12603;SDS011;6367;52.508;13.284;2023-04-24T12:27:44;1.10;;;1.00;;
12603;SDS011;6367;52.508;13.284;2023-04-24T12:30:14;1.77;;;1.00;;
12603;SDS011;6367;52.508;13.284;2023-04-24T12:32:42;1.20;;;0.90;;
12603;SDS011;6367;52.508;13.284;2023-04-24T12:35:09;4.30;;;1.17;;
12603;SDS011;6367;52.508;13.284;2023-04-24T12:37:35;3.90;;;1.10;;
12603;SDS011;6367;52.508;13.284;2023-04-24T12:40:05;1.63;;;0.90;;
12603;SDS011;6367;52.508;13.284;2023-04-24T12:42:33;1.90;;;0.97;;
12603;SDS011;6367;52.508;13.284;2023-04-24T12:45:03;0.87;;;0.87;;
12603;SDS011;6367;52.508;13.284;2023-04-24T12:47:31;1.00;;;0.80;;
12603;SDS011;6367;52.508;13.284;2023-04-24T12:49:57;0.80;;;0.80;;
12603;SDS011;6367;52.508;13.284;2023-04-24T12:52:24;0.90;;;0.90;;
12603;SDS011;6367;52.508;13.284;2023-04-24T12:54:52;1.37;;;1.00;;
12603;SDS011;6367;52.508;13.284;2023-04-24T12:57:19;1.20;;;1.10;;
12603;SDS011;6367;52.508;13.284;2023-04-24T12:59:45;1.20;;;1.03;;
12603;SDS011;6367;52.508;13.284;2023-04-24T13:02:10;1.17;;;0.93;;
12603;SDS011;6367;52.508;13.284;2023-04-24T13:04:36;1.90;;;0.87;;
12603;SDS011;6367;52.508;13.284;2023-04-24T13:07:02;1.73;;;0.90;;
12603;SDS011;6367;52.508;13.284;2023-04-24T13:09:28;0.80;;;0.80;;
12603;SDS011;6367;52.508;13.284;2023-04-24T13:11:54;1.43;;;1.10;;
12603;SDS011;6367;52.508;13.284;2023-04-24T13:14:21;1.40;;;0.97;;
12603;SDS011;6367;52.508;13.284;2023-04-24T13:16:47;1.10;;;0.90;;
12603;SDS011;6367;52.508;13.284;2023-04-24T13:19:12;2.40;;;1.10;;
12603;SDS011;6367;52.508;13.284;2023-04-24T13:21:38;2.47;;;0.90;;
12603;SDS011;6367;52.508;13.284;2023-04-24T13:24:03;1.57;;;0.90;;
12603;SDS011;6367;52.508;13.284;2023-04-24T13:26:30;1.40;;;1.00;;
12603;SDS011;6367;52.508;13.284;2023-04-24T13:28:56;2.03;;;1.10;;
12603;SDS011;6367;52.508;13.284;2023-04-24T13:31:21;0.80;;;0.80;;
12603;SDS011;6367;52.508;13.284;2023-04-24T13:33:47;1.17;;;0.93;;
12603;SDS011;6367;52.508;13.284;2023-04-24T13:36:13;1.77;;;1.10;;
12603;SDS011;6367;52.508;13.284;2023-04-24T13:38:38;1.47;;;0.90;;
12603;SDS011;6367;52.508;13.284;2023-04-24T13:41:04;1.20;;;1.10;;
12603;SDS011;6367;52.508;13.284;2023-04-24T13:43:30;1.00;;;0.90;;
12603;SDS011;6367;52.508;13.284;2023-04-24T13:45:58;1.00;;;0.90;;
12603;SDS011;6367;52.508;13.284;2023-04-24T13:48:24;1.27;;;0.90;;
12603;SDS011;6367;52.508;13.284;2023-04-24T13:50:50;2.27;;;0.93;;
12603;SDS011;6367;52.508;13.284;2023-04-24T13:53:15;2.20;;;1.00;;
12603;SDS011;6367;52.508;13.284;2023-04-24T13:55:41;1.00;;;0.90;;
12603;SDS011;6367;52.508;13.284;2023-04-24T13:58:07;1.20;;;0.90;;
12603;SDS011;6367;52.508;13.284;2023-04-24T14:00:33;1.00;;;1.00;;
12603;SDS011;6367;52.508;13.284;2023-04-24T14:02:58;1.10;;;0.90;;
12603;SDS011;6367;52.508;13.284;2023-04-24T14:05:24;0.90;;;0.90;;
12603;SDS011;6367;52.508;13.284;2023-04-24T14:07:50;0.97;;;0.90;;
12603;SDS011;6367;52.508;13.284;2023-04-24T14:10:16;2.87;;;0.90;;
12603;SDS011;6367;52.508;13.284;2023-04-24T14:12:42;1.03;;;1.00;;
12603;SDS011;6367;52.508;13.284;2023-04-24T14:15:08;1.53;;;1.20;;
12603;SDS011;6367;52.508;13.284;2023-04-24T14:17:34;1.80;;;1.00;;
12603;SDS011;6367;52.508;13.284;2023-04-24T14:19:59;1.77;;;1.33;;
12603;SDS011;6367;52.508;13.284;2023-04-24T14:22:25;0.80;;;0.80;;
12603;SDS011;6367;52.508;13.284;2023-04-24T14:24:51;1.10;;;1.00;;
12603;SDS011;6367;52.508;13.284;2023-04-24T14:27:17;1.40;;;1.10;;
12603;SDS011;6367;52.508;13.284;2023-04-24T14:29:42;1.07;;;0.97;;
12603;SDS011;6367;52.508;13.284;2023-04-24T14:32:10;1.57;;;0.90;;
12603;SDS011;6367;52.508;13.284;2023-04-24T14:34:35;1.30;;;1.10;;
12603;SDS011;6367;52.508;13.284;2023-04-24T14:37:01;1.83;;;1.20;;
12603;SDS011;6367;52.508;13.284;2023-04-24T14:39:27;1.17;;;1.03;;
12603;SDS011;6367;52.508;13.284;2023-04-24T14:41:53;1.20;;;1.07;;
12603;SDS011;6367;52.508;13.284;2023-04-24T14:44:20;1.20;;;1.10;;
12603;SDS011;6367;52.508;13.284;2023-04-24T14:46:45;1.10;;;1.00;;
12603;SDS011;6367;52.508;13.284;2023-04-24T14:49:11;1.73;;;1.07;;
12603;SDS011;6367;52.508;13.284;2023-04-24T14:51:37;1.93;;;1.10;;
12603;SDS011;6367;52.508;13.284;2023-04-24T14:54:03;1.10;;;1.00;;